< < Back
Terminal Aerodrome Forecast


Current Version              Previous Versions:   1  2  3  4  5  6  7  8  9  

Terminal Aerodrome Forecast

261
FTUS42 KCAE 130835 AAA
TAFCAE
TAF AMD
KCAE 130835Z 1309/1406 30006KT P6SM SKC
     FM131400 35010KT P6SM FEW250=

Latest METAR

251
SAUS80 KWBC 132100
MTRCAE
METAR KCAE 132056Z 30006G21KT 10SM CLR 08/M18 A3027 RMK AO2 SLP250
T00831178 56007


USA.gov is the U.S. government's official web portal to all federal, state and local government web resources and services.